Terminal Aerodrome Forecast
Issued by NWS Detroit/Pontiac, MI

Home | Current Version | Previous Version | Text Only | Print | Product List | Glossary On
Versions: 1 2 3 4 5 6 7 8 9 10 11 12 13 14 15 16 17 18 19 20 21 22 23 24 25
022
FTUS43 KDTX 201721
TAFDTW
TAF
KDTW 201721Z 2018/2124 22017G27KT P6SM SCT200
     FM210200 21012KT P6SM BKN250 WS012/22042KT
     FM211500 22014G26KT P6SM FEW040 BKN150
     FM212000 28012G24KT P6SM SCT025 OVC040 PROB30 2120/2124 3SM
      -SHRA BKN025 OVC040=

USA.gov is the U.S. government's official web portal to all federal, state and local government web resources and services.